WAT9888 KPHX-KSFO
Flight info
| Callsign | WAT9888 |
|---|---|
| Flight time | 1h 29m |
| Altitude | 40000 |
| Route | KEENS3 HRRBR CURIV J212 DECAS PMD AVE MAKRS SERFR SERFR4 |
| Aircraft | A343/H-SDE2E3FGHIJ4J5M1RWXY/LB1D1 |
Departure
| Time | 2026-05-07 01:21 |
|---|---|
| Airport | Phoenix Sky Harbor International Airport (KPHX) |
Arrival
| Time | 2026-05-07 02:50 |
|---|---|
| Airport | San Francisco International Airport (KSFO) |
| Time | Latitude | Longitude | Altitude | Speed | Heading |
|---|---|---|---|---|---|
| 2026-05-07 00:37 | 33.43840 | -111.99408 | 1130 ft | 0 kts | 203° |
| 2026-05-07 01:07 | 33.43848 | -111.99404 | 1135 ft | 3 kts | 202° |
| 2026-05-07 01:07 | 33.43867 | -111.99395 | 1135 ft | 3 kts | 180° |
| 2026-05-07 01:07 | 33.43888 | -111.99396 | 1134 ft | 3 kts | 165° |
| 2026-05-07 01:08 | 33.43903 | -111.99410 | 1135 ft | 3 kts | 88° |
| 2026-05-07 01:08 | 33.43903 | -111.99415 | 1135 ft | 0 kts | 88° |
| 2026-05-07 01:15 | 33.43904 | -111.99384 | 1130 ft | 7 kts | 88° |
| 2026-05-07 01:15 | 33.43905 | -111.99360 | 1130 ft | 0 kts | 89° |
| 2026-05-07 01:16 | 33.43905 | -111.99358 | 1130 ft | 1 kts | 89° |
| 2026-05-07 01:16 | 33.43905 | -111.99322 | 1132 ft | 8 kts | 89° |
| 2026-05-07 01:17 | 33.43905 | -111.99290 | 1131 ft | 0 kts | 91° |
| 2026-05-07 01:17 | 33.43903 | -111.99275 | 1131 ft | 6 kts | 99° |
| 2026-05-07 01:17 | 33.43844 | -111.99227 | 1132 ft | 14 kts | 175° |
| 2026-05-07 01:17 | 33.43728 | -111.99226 | 1123 ft | 19 kts | 181° |
| 2026-05-07 01:18 | 33.43583 | -111.99227 | 1123 ft | 21 kts | 180° |
| 2026-05-07 01:18 | 33.43437 | -111.99238 | 1123 ft | 21 kts | 191° |
| 2026-05-07 01:18 | 33.43294 | -111.99246 | 1133 ft | 17 kts | 179° |
| 2026-05-07 01:18 | 33.43217 | -111.99263 | 1133 ft | 0 kts | 208° |
| 2026-05-07 01:19 | 33.43213 | -111.99266 | 1134 ft | 2 kts | 211° |
| 2026-05-07 01:20 | 33.43185 | -111.99289 | 1134 ft | 7 kts | 216° |
| 2026-05-07 01:20 | 33.43139 | -111.99339 | 1138 ft | 12 kts | 225° |
| 2026-05-07 01:20 | 33.43105 | -111.99463 | 1140 ft | 17 kts | 266° |
| 2026-05-07 01:20 | 33.43103 | -111.99702 | 1140 ft | 53 kts | 270° |
| 2026-05-07 01:21 | 33.43105 | -112.00394 | 1135 ft | 111 kts | 270° |
| 2026-05-07 01:21 | 33.43105 | -112.01516 | 1131 ft | 157 kts | 270° |
| 2026-05-07 01:21 | 33.43111 | -112.02941 | 1414 ft | 176 kts | 271° |
| 2026-05-07 01:21 | 33.42987 | -112.04390 | 2064 ft | 175 kts | 260° |
| 2026-05-07 01:22 | 33.42749 | -112.05855 | 2549 ft | 189 kts | 259° |
| 2026-05-07 01:22 | 33.42463 | -112.07436 | 3007 ft | 204 kts | 258° |
| 2026-05-07 01:22 | 33.42105 | -112.09208 | 3330 ft | 234 kts | 256° |
| 2026-05-07 01:22 | 33.41644 | -112.11180 | 3831 ft | 254 kts | 254° |
| 2026-05-07 01:23 | 33.41084 | -112.13234 | 4518 ft | 264 kts | 251° |
| 2026-05-07 01:23 | 33.40448 | -112.15301 | 5010 ft | 265 kts | 251° |
| 2026-05-07 01:23 | 33.39783 | -112.17398 | 5673 ft | 273 kts | 251° |
| 2026-05-07 01:23 | 33.39254 | -112.19600 | 6503 ft | 279 kts | 265° |
| 2026-05-07 01:24 | 33.39333 | -112.21923 | 7311 ft | 281 kts | 282° |
| 2026-05-07 01:24 | 33.39678 | -112.24244 | 8125 ft | 287 kts | 283° |
| 2026-05-07 01:24 | 33.40049 | -112.26615 | 8927 ft | 293 kts | 284° |
| 2026-05-07 01:24 | 33.40422 | -112.29037 | 9727 ft | 299 kts | 284° |
| 2026-05-07 01:25 | 33.40800 | -112.31518 | 10381 ft | 309 kts | 284° |
| 2026-05-07 01:25 | 33.41196 | -112.34136 | 10721 ft | 329 kts | 284° |
| 2026-05-07 01:25 | 33.41607 | -112.36872 | 11112 ft | 344 kts | 283° |
| 2026-05-07 01:25 | 33.42030 | -112.39726 | 11725 ft | 352 kts | 283° |
| 2026-05-07 01:26 | 33.42458 | -112.42637 | 12380 ft | 358 kts | 283° |
| 2026-05-07 01:26 | 33.42894 | -112.45601 | 13043 ft | 364 kts | 283° |
| 2026-05-07 01:26 | 33.43336 | -112.48605 | 13736 ft | 369 kts | 282° |
| 2026-05-07 01:26 | 33.43781 | -112.51646 | 14395 ft | 373 kts | 282° |
| 2026-05-07 01:27 | 33.44231 | -112.54720 | 15077 ft | 376 kts | 282° |
| 2026-05-07 01:27 | 33.44531 | -112.56772 | 15524 ft | 377 kts | 282° |
| 2026-05-07 01:27 | 33.44940 | -112.59893 | 16197 ft | 382 kts | 278° |
| 2026-05-07 01:27 | 33.45078 | -112.63090 | 16892 ft | 386 kts | 273° |
| 2026-05-07 01:28 | 33.45120 | -112.66315 | 17560 ft | 389 kts | 272° |
| 2026-05-07 01:28 | 33.45155 | -112.69568 | 18239 ft | 393 kts | 272° |
| 2026-05-07 01:28 | 33.45194 | -112.72855 | 18797 ft | 396 kts | 272° |
| 2026-05-07 01:28 | 33.45233 | -112.76178 | 19342 ft | 401 kts | 273° |
| 2026-05-07 01:29 | 33.45340 | -112.79529 | 19872 ft | 404 kts | 278° |
| 2026-05-07 01:29 | 33.45799 | -112.82857 | 20388 ft | 407 kts | 284° |
| 2026-05-07 01:29 | 33.46414 | -112.86172 | 20917 ft | 410 kts | 285° |
| 2026-05-07 01:29 | 33.47050 | -112.89521 | 21452 ft | 414 kts | 285° |
| 2026-05-07 01:30 | 33.47689 | -112.92900 | 21996 ft | 417 kts | 285° |
| 2026-05-07 01:30 | 33.48330 | -112.96314 | 22498 ft | 421 kts | 285° |
| 2026-05-07 01:30 | 33.48973 | -112.99750 | 22998 ft | 425 kts | 285° |
| 2026-05-07 01:30 | 33.49621 | -113.03221 | 23500 ft | 429 kts | 285° |
| 2026-05-07 01:31 | 33.50265 | -113.06686 | 23918 ft | 432 kts | 285° |
| 2026-05-07 01:31 | 33.50919 | -113.10208 | 24308 ft | 435 kts | 285° |
| 2026-05-07 01:31 | 33.51578 | -113.13766 | 24683 ft | 440 kts | 286° |
| 2026-05-07 01:31 | 33.52246 | -113.17375 | 25064 ft | 443 kts | 286° |
| 2026-05-07 01:32 | 33.52914 | -113.20992 | 25448 ft | 447 kts | 286° |
| 2026-05-07 01:32 | 33.53587 | -113.24645 | 25828 ft | 450 kts | 286° |
| 2026-05-07 01:32 | 33.54263 | -113.28323 | 26199 ft | 454 kts | 286° |
| 2026-05-07 01:32 | 33.54944 | -113.32031 | 26568 ft | 457 kts | 287° |
| 2026-05-07 01:33 | 33.55627 | -113.35758 | 26927 ft | 460 kts | 287° |
| 2026-05-07 01:33 | 33.56316 | -113.39527 | 27271 ft | 463 kts | 287° |
| 2026-05-07 01:33 | 33.57008 | -113.43316 | 27609 ft | 467 kts | 287° |
| 2026-05-07 01:33 | 33.57695 | -113.47086 | 27934 ft | 470 kts | 287° |
| 2026-05-07 01:34 | 33.58396 | -113.50940 | 28275 ft | 473 kts | 287° |
| 2026-05-07 01:34 | 33.59104 | -113.54807 | 28603 ft | 476 kts | 287° |
| 2026-05-07 01:34 | 33.59834 | -113.58696 | 28909 ft | 479 kts | 287° |
| 2026-05-07 01:34 | 33.60567 | -113.62603 | 29217 ft | 482 kts | 287° |
| 2026-05-07 01:35 | 33.61300 | -113.66528 | 29535 ft | 484 kts | 287° |
| 2026-05-07 01:35 | 33.62037 | -113.70492 | 29870 ft | 487 kts | 287° |
| 2026-05-07 01:35 | 33.62776 | -113.74473 | 30146 ft | 490 kts | 287° |
| 2026-05-07 01:35 | 33.63514 | -113.78464 | 30410 ft | 492 kts | 287° |
| 2026-05-07 01:36 | 33.64257 | -113.82489 | 30704 ft | 493 kts | 287° |
| 2026-05-07 01:36 | 33.64999 | -113.86513 | 30984 ft | 495 kts | 287° |
| 2026-05-07 01:36 | 33.65739 | -113.90508 | 31268 ft | 497 kts | 287° |
| 2026-05-07 01:36 | 33.66494 | -113.94611 | 31558 ft | 498 kts | 287° |
| 2026-05-07 01:37 | 33.67230 | -113.98631 | 31830 ft | 500 kts | 287° |
| 2026-05-07 01:37 | 33.67978 | -114.02718 | 32114 ft | 501 kts | 287° |
| 2026-05-07 01:37 | 33.68723 | -114.06803 | 32498 ft | 500 kts | 287° |
| 2026-05-07 01:37 | 33.69463 | -114.10874 | 32802 ft | 499 kts | 288° |
| 2026-05-07 01:38 | 33.70206 | -114.14951 | 33072 ft | 500 kts | 288° |
| 2026-05-07 01:38 | 33.70949 | -114.19039 | 33389 ft | 500 kts | 288° |
| 2026-05-07 01:38 | 33.71687 | -114.23110 | 33744 ft | 499 kts | 288° |
| 2026-05-07 01:38 | 33.72424 | -114.27185 | 34047 ft | 498 kts | 288° |
| 2026-05-07 01:39 | 33.73156 | -114.31246 | 34360 ft | 497 kts | 287° |
| 2026-05-07 01:39 | 33.73885 | -114.35294 | 34695 ft | 495 kts | 287° |
| 2026-05-07 01:39 | 33.74606 | -114.39315 | 35083 ft | 490 kts | 287° |
| 2026-05-07 01:39 | 33.75319 | -114.43304 | 35506 ft | 486 kts | 287° |
| 2026-05-07 01:40 | 33.76018 | -114.47213 | 35839 ft | 483 kts | 287° |
| 2026-05-07 01:40 | 33.76722 | -114.51160 | 36107 ft | 482 kts | 287° |
| 2026-05-07 01:40 | 33.77263 | -114.55148 | 36344 ft | 486 kts | 280° |
| 2026-05-07 01:40 | 33.77583 | -114.59202 | 36618 ft | 486 kts | 279° |
| 2026-05-07 01:41 | 33.77850 | -114.63247 | 36926 ft | 485 kts | 278° |
| 2026-05-07 01:41 | 33.78088 | -114.67273 | 37199 ft | 482 kts | 278° |
| 2026-05-07 01:41 | 33.78316 | -114.71303 | 37433 ft | 482 kts | 278° |
| 2026-05-07 01:41 | 33.78540 | -114.75316 | 37689 ft | 480 kts | 278° |
| 2026-05-07 01:42 | 33.78762 | -114.79326 | 37971 ft | 479 kts | 278° |
| 2026-05-07 01:42 | 33.78984 | -114.83309 | 38239 ft | 477 kts | 278° |
| 2026-05-07 01:42 | 33.79203 | -114.87237 | 38464 ft | 477 kts | 278° |
| 2026-05-07 01:42 | 33.79427 | -114.91214 | 38708 ft | 476 kts | 278° |
| 2026-05-07 01:43 | 33.79650 | -114.95181 | 38913 ft | 473 kts | 278° |
| 2026-05-07 01:43 | 33.79870 | -114.99125 | 39090 ft | 473 kts | 277° |
| 2026-05-07 01:43 | 33.80088 | -115.03065 | 39251 ft | 472 kts | 277° |
| 2026-05-07 01:43 | 33.80303 | -115.07002 | 39378 ft | 472 kts | 277° |
| 2026-05-07 01:44 | 33.80517 | -115.10932 | 39553 ft | 471 kts | 277° |
| 2026-05-07 01:44 | 33.80730 | -115.14860 | 39741 ft | 470 kts | 277° |
| 2026-05-07 01:44 | 33.80943 | -115.18792 | 39894 ft | 469 kts | 277° |
| 2026-05-07 01:45 | 33.81367 | -115.26660 | 39949 ft | 475 kts | 277° |
| 2026-05-07 01:45 | 33.81788 | -115.34603 | 39960 ft | 475 kts | 277° |
| 2026-05-07 01:46 | 33.82227 | -115.42466 | 39958 ft | 472 kts | 280° |
| 2026-05-07 01:46 | 33.83804 | -115.50035 | 39953 ft | 464 kts | 293° |
| 2026-05-07 01:47 | 33.86059 | -115.57304 | 39969 ft | 464 kts | 295° |
| 2026-05-07 01:47 | 33.88422 | -115.64547 | 39949 ft | 464 kts | 295° |
| 2026-05-07 01:48 | 33.90774 | -115.71786 | 39967 ft | 464 kts | 295° |
| 2026-05-07 01:48 | 33.93104 | -115.79033 | 39968 ft | 465 kts | 295° |
| 2026-05-07 01:49 | 33.95431 | -115.86315 | 39978 ft | 466 kts | 295° |
| 2026-05-07 01:49 | 33.97738 | -115.93556 | 39978 ft | 466 kts | 295° |
| 2026-05-07 01:50 | 34.00058 | -116.00857 | 39988 ft | 466 kts | 295° |
| 2026-05-07 01:50 | 34.02375 | -116.08157 | 40002 ft | 466 kts | 295° |
| 2026-05-07 01:51 | 34.04684 | -116.15450 | 40020 ft | 466 kts | 295° |
| 2026-05-07 01:51 | 34.06992 | -116.22761 | 40019 ft | 466 kts | 295° |
| 2026-05-07 01:52 | 34.09291 | -116.30059 | 39973 ft | 465 kts | 295° |
| 2026-05-07 01:52 | 34.11569 | -116.37308 | 39976 ft | 464 kts | 295° |
| 2026-05-07 01:53 | 34.13853 | -116.44595 | 39975 ft | 464 kts | 295° |
| 2026-05-07 01:53 | 34.16138 | -116.51903 | 39983 ft | 464 kts | 295° |
| 2026-05-07 01:54 | 34.18418 | -116.59213 | 39983 ft | 465 kts | 295° |
| 2026-05-07 01:54 | 34.20695 | -116.66530 | 39996 ft | 465 kts | 295° |
| 2026-05-07 01:55 | 34.22963 | -116.73835 | 39996 ft | 463 kts | 295° |
| 2026-05-07 01:55 | 34.25223 | -116.81134 | 40014 ft | 463 kts | 295° |
| 2026-05-07 01:56 | 34.27476 | -116.88426 | 40016 ft | 463 kts | 295° |
| 2026-05-07 01:56 | 34.29710 | -116.95675 | 40017 ft | 463 kts | 295° |
| 2026-05-07 01:57 | 34.31952 | -117.02971 | 40011 ft | 463 kts | 295° |
| 2026-05-07 01:57 | 34.34190 | -117.10271 | 40021 ft | 462 kts | 295° |
| 2026-05-07 01:58 | 34.36420 | -117.17561 | 39979 ft | 462 kts | 295° |
| 2026-05-07 01:58 | 34.38647 | -117.24858 | 40019 ft | 461 kts | 295° |
| 2026-05-07 01:59 | 34.40865 | -117.32146 | 40004 ft | 461 kts | 295° |
| 2026-05-07 01:59 | 34.43077 | -117.39433 | 39999 ft | 461 kts | 295° |
| 2026-05-07 02:00 | 34.45289 | -117.46734 | 40000 ft | 461 kts | 295° |
| 2026-05-07 02:00 | 34.47494 | -117.54033 | 40058 ft | 460 kts | 294° |
| 2026-05-07 02:01 | 34.49690 | -117.61323 | 40053 ft | 460 kts | 294° |
| 2026-05-07 02:01 | 34.51867 | -117.68565 | 40028 ft | 460 kts | 294° |
| 2026-05-07 02:02 | 34.54058 | -117.75869 | 40023 ft | 460 kts | 294° |
| 2026-05-07 02:02 | 34.56239 | -117.83162 | 40028 ft | 460 kts | 294° |
| 2026-05-07 02:03 | 34.58416 | -117.90459 | 40045 ft | 460 kts | 294° |
| 2026-05-07 02:03 | 34.60594 | -117.97780 | 40062 ft | 459 kts | 294° |
| 2026-05-07 02:04 | 34.62819 | -118.04985 | 40063 ft | 456 kts | 299° |
| 2026-05-07 02:04 | 34.65973 | -118.11597 | 40064 ft | 452 kts | 307° |
| 2026-05-07 02:05 | 34.69414 | -118.17993 | 40053 ft | 452 kts | 308° |
| 2026-05-07 02:05 | 34.72904 | -118.24366 | 40048 ft | 452 kts | 308° |
| 2026-05-07 02:06 | 34.76376 | -118.30741 | 40053 ft | 452 kts | 308° |
| 2026-05-07 02:06 | 34.79834 | -118.37128 | 40045 ft | 451 kts | 308° |
| 2026-05-07 02:07 | 34.83261 | -118.43479 | 40059 ft | 452 kts | 308° |
| 2026-05-07 02:07 | 34.88432 | -118.53083 | 40113 ft | 452 kts | 308° |
| 2026-05-07 02:08 | 34.91876 | -118.59494 | 40123 ft | 452 kts | 308° |
| 2026-05-07 02:08 | 34.95320 | -118.65915 | 40129 ft | 452 kts | 307° |
| 2026-05-07 02:09 | 34.98753 | -118.72328 | 40121 ft | 451 kts | 307° |
| 2026-05-07 02:09 | 35.02182 | -118.78744 | 40113 ft | 451 kts | 307° |
| 2026-05-07 02:10 | 35.05601 | -118.85155 | 40098 ft | 450 kts | 307° |
| 2026-05-07 02:10 | 35.08996 | -118.91530 | 40096 ft | 450 kts | 307° |
| 2026-05-07 02:11 | 35.12406 | -118.97946 | 40090 ft | 450 kts | 307° |
| 2026-05-07 02:11 | 35.15822 | -119.04385 | 40081 ft | 451 kts | 307° |
| 2026-05-07 02:12 | 35.19235 | -119.10830 | 40078 ft | 451 kts | 307° |
| 2026-05-07 02:12 | 35.22639 | -119.17270 | 40072 ft | 451 kts | 307° |
| 2026-05-07 02:13 | 35.26021 | -119.23682 | 40072 ft | 451 kts | 307° |
| 2026-05-07 02:13 | 35.29418 | -119.30132 | 40069 ft | 451 kts | 307° |
| 2026-05-07 02:14 | 35.32815 | -119.36595 | 40072 ft | 451 kts | 307° |
| 2026-05-07 02:14 | 35.36209 | -119.43063 | 40069 ft | 451 kts | 307° |
| 2026-05-07 02:15 | 35.39025 | -119.48441 | 40072 ft | 451 kts | 307° |
| 2026-05-07 02:15 | 35.42408 | -119.54909 | 40063 ft | 451 kts | 306° |
| 2026-05-07 02:16 | 35.46335 | -119.62435 | 40073 ft | 450 kts | 306° |
| 2026-05-07 02:16 | 35.49164 | -119.67866 | 40071 ft | 450 kts | 306° |
| 2026-05-07 02:17 | 35.52505 | -119.74292 | 40077 ft | 449 kts | 306° |
| 2026-05-07 02:17 | 35.55864 | -119.80763 | 40078 ft | 449 kts | 306° |
| 2026-05-07 02:18 | 35.59216 | -119.87235 | 40080 ft | 449 kts | 306° |
| 2026-05-07 02:18 | 35.62550 | -119.93735 | 40070 ft | 451 kts | 303° |
| 2026-05-07 02:19 | 35.64866 | -120.00924 | 40081 ft | 457 kts | 285° |
| 2026-05-07 02:19 | 35.65855 | -120.08678 | 40080 ft | 460 kts | 281° |
| 2026-05-07 02:20 | 35.66595 | -120.16451 | 40081 ft | 461 kts | 279° |
| 2026-05-07 02:20 | 35.67316 | -120.24288 | 40085 ft | 461 kts | 280° |
| 2026-05-07 02:21 | 35.68137 | -120.32095 | 40094 ft | 459 kts | 285° |
| 2026-05-07 02:21 | 35.70232 | -120.39403 | 40100 ft | 451 kts | 298° |
| 2026-05-07 02:22 | 35.72885 | -120.46410 | 40103 ft | 451 kts | 298° |
| 2026-05-07 02:22 | 35.75551 | -120.53398 | 40107 ft | 451 kts | 298° |
| 2026-05-07 02:23 | 35.78199 | -120.60349 | 40108 ft | 451 kts | 298° |
| 2026-05-07 02:23 | 35.80859 | -120.67342 | 40070 ft | 451 kts | 298° |
| 2026-05-07 02:24 | 35.82176 | -120.70815 | 39966 ft | 444 kts | 298° |
| 2026-05-07 02:24 | 35.83475 | -120.74244 | 39760 ft | 438 kts | 298° |
| 2026-05-07 02:24 | 35.84769 | -120.77656 | 39191 ft | 441 kts | 298° |
| 2026-05-07 02:24 | 35.86076 | -120.81108 | 38529 ft | 446 kts | 298° |
| 2026-05-07 02:25 | 35.87393 | -120.84587 | 37943 ft | 448 kts | 298° |
| 2026-05-07 02:25 | 35.88708 | -120.88066 | 37408 ft | 448 kts | 298° |
| 2026-05-07 02:25 | 35.90023 | -120.91553 | 36902 ft | 448 kts | 298° |
| 2026-05-07 02:25 | 35.91337 | -120.95040 | 36333 ft | 449 kts | 298° |
| 2026-05-07 02:26 | 35.92654 | -120.98536 | 35786 ft | 450 kts | 298° |
| 2026-05-07 02:26 | 35.93978 | -121.02054 | 35176 ft | 453 kts | 298° |
| 2026-05-07 02:26 | 35.95307 | -121.05593 | 34543 ft | 456 kts | 297° |
| 2026-05-07 02:26 | 35.96640 | -121.09144 | 33883 ft | 458 kts | 297° |
| 2026-05-07 02:27 | 35.97978 | -121.12716 | 33189 ft | 459 kts | 297° |
| 2026-05-07 02:27 | 35.99301 | -121.16251 | 32531 ft | 459 kts | 297° |
| 2026-05-07 02:27 | 36.00645 | -121.19848 | 31850 ft | 460 kts | 297° |
| 2026-05-07 02:27 | 36.01984 | -121.23435 | 31391 ft | 457 kts | 297° |
| 2026-05-07 02:28 | 36.03304 | -121.26975 | 30922 ft | 452 kts | 297° |
| 2026-05-07 02:28 | 36.04613 | -121.30492 | 30454 ft | 449 kts | 297° |
| 2026-05-07 02:28 | 36.06000 | -121.33931 | 29978 ft | 443 kts | 303° |
| 2026-05-07 02:28 | 36.07883 | -121.36896 | 29480 ft | 435 kts | 318° |
| 2026-05-07 02:29 | 36.10254 | -121.39156 | 29017 ft | 428 kts | 328° |
| 2026-05-07 02:29 | 36.12756 | -121.41124 | 28558 ft | 423 kts | 329° |
| 2026-05-07 02:29 | 36.15240 | -121.43044 | 28101 ft | 419 kts | 329° |
| 2026-05-07 02:29 | 36.17699 | -121.44948 | 27643 ft | 416 kts | 329° |
| 2026-05-07 02:30 | 36.20141 | -121.46847 | 27194 ft | 412 kts | 329° |
| 2026-05-07 02:30 | 36.22559 | -121.48733 | 26743 ft | 409 kts | 329° |
| 2026-05-07 02:30 | 36.24959 | -121.50607 | 26280 ft | 407 kts | 329° |
| 2026-05-07 02:30 | 36.27345 | -121.52473 | 25820 ft | 404 kts | 329° |
| 2026-05-07 02:31 | 36.29711 | -121.54326 | 25380 ft | 401 kts | 329° |
| 2026-05-07 02:31 | 36.32063 | -121.56171 | 24939 ft | 399 kts | 329° |
| 2026-05-07 02:31 | 36.34398 | -121.58003 | 24481 ft | 397 kts | 329° |
| 2026-05-07 02:31 | 36.36733 | -121.59836 | 24025 ft | 396 kts | 329° |
| 2026-05-07 02:32 | 36.39024 | -121.61636 | 23558 ft | 394 kts | 329° |
| 2026-05-07 02:32 | 36.41330 | -121.63450 | 23089 ft | 391 kts | 329° |
| 2026-05-07 02:32 | 36.43614 | -121.65248 | 22781 ft | 384 kts | 329° |
| 2026-05-07 02:32 | 36.45839 | -121.67000 | 22618 ft | 375 kts | 329° |
| 2026-05-07 02:33 | 36.48033 | -121.68730 | 22168 ft | 373 kts | 329° |
| 2026-05-07 02:33 | 36.50229 | -121.70461 | 21737 ft | 372 kts | 329° |
| 2026-05-07 02:33 | 36.52414 | -121.72191 | 21306 ft | 371 kts | 329° |
| 2026-05-07 02:33 | 36.54593 | -121.73912 | 20885 ft | 371 kts | 329° |
| 2026-05-07 02:34 | 36.56774 | -121.75633 | 20464 ft | 370 kts | 329° |
| 2026-05-07 02:34 | 36.58922 | -121.77331 | 20034 ft | 370 kts | 329° |
| 2026-05-07 02:34 | 36.61090 | -121.79048 | 19612 ft | 369 kts | 329° |
| 2026-05-07 02:34 | 36.63260 | -121.80768 | 19182 ft | 368 kts | 329° |
| 2026-05-07 02:35 | 36.65413 | -121.82474 | 18729 ft | 367 kts | 329° |
| 2026-05-07 02:35 | 36.67570 | -121.84186 | 18282 ft | 366 kts | 329° |
| 2026-05-07 02:35 | 36.69717 | -121.85890 | 17809 ft | 365 kts | 329° |
| 2026-05-07 02:35 | 36.71854 | -121.87588 | 17364 ft | 363 kts | 329° |
| 2026-05-07 02:36 | 36.74034 | -121.89148 | 16894 ft | 360 kts | 338° |
| 2026-05-07 02:36 | 36.76406 | -121.90080 | 16444 ft | 357 kts | 348° |
| 2026-05-07 02:36 | 36.78833 | -121.90764 | 15986 ft | 356 kts | 349° |
| 2026-05-07 02:36 | 36.81245 | -121.91421 | 15558 ft | 354 kts | 349° |
| 2026-05-07 02:37 | 36.83650 | -121.92081 | 15158 ft | 352 kts | 349° |
| 2026-05-07 02:37 | 36.86040 | -121.92743 | 14746 ft | 351 kts | 349° |
| 2026-05-07 02:37 | 36.88392 | -121.93397 | 14349 ft | 350 kts | 349° |
| 2026-05-07 02:37 | 36.90761 | -121.94056 | 13951 ft | 349 kts | 349° |
| 2026-05-07 02:38 | 36.93122 | -121.94715 | 13525 ft | 347 kts | 349° |
| 2026-05-07 02:38 | 36.95455 | -121.95370 | 13011 ft | 340 kts | 349° |
| 2026-05-07 02:38 | 36.97695 | -121.96149 | 12459 ft | 330 kts | 343° |
| 2026-05-07 02:38 | 36.99878 | -121.97042 | 12026 ft | 331 kts | 343° |
| 2026-05-07 02:39 | 37.02071 | -121.97934 | 11627 ft | 332 kts | 343° |
| 2026-05-07 02:39 | 37.04265 | -121.98814 | 11244 ft | 330 kts | 343° |
| 2026-05-07 02:39 | 37.06453 | -121.99680 | 10866 ft | 328 kts | 344° |
| 2026-05-07 02:39 | 37.08622 | -122.00535 | 10539 ft | 324 kts | 344° |
| 2026-05-07 02:40 | 37.10743 | -122.01370 | 10387 ft | 314 kts | 344° |
| 2026-05-07 02:40 | 37.12801 | -122.02176 | 10247 ft | 305 kts | 344° |
| 2026-05-07 02:40 | 37.14795 | -122.02958 | 10108 ft | 297 kts | 344° |
| 2026-05-07 02:40 | 37.16756 | -122.03726 | 9870 ft | 292 kts | 344° |
| 2026-05-07 02:41 | 37.18688 | -122.04482 | 9557 ft | 290 kts | 344° |
| 2026-05-07 02:41 | 37.20598 | -122.05230 | 9270 ft | 283 kts | 344° |
| 2026-05-07 02:41 | 37.22425 | -122.05949 | 8990 ft | 268 kts | 344° |
| 2026-05-07 02:41 | 37.24172 | -122.06633 | 8595 ft | 265 kts | 344° |
| 2026-05-07 02:42 | 37.25937 | -122.07322 | 8260 ft | 267 kts | 344° |
| 2026-05-07 02:42 | 37.27708 | -122.08016 | 8028 ft | 266 kts | 344° |
| 2026-05-07 02:42 | 37.29470 | -122.08711 | 7799 ft | 265 kts | 343° |
| 2026-05-07 02:42 | 37.31231 | -122.09405 | 7538 ft | 265 kts | 344° |
| 2026-05-07 02:43 | 37.32984 | -122.10096 | 7251 ft | 263 kts | 344° |
| 2026-05-07 02:43 | 37.34719 | -122.10780 | 6734 ft | 260 kts | 344° |
| 2026-05-07 02:43 | 37.36425 | -122.11453 | 6225 ft | 255 kts | 344° |
| 2026-05-07 02:43 | 37.38140 | -122.12131 | 5872 ft | 261 kts | 343° |
| 2026-05-07 02:44 | 37.39873 | -122.12821 | 5565 ft | 262 kts | 343° |
| 2026-05-07 02:44 | 37.41634 | -122.13424 | 5204 ft | 262 kts | 347° |
| 2026-05-07 02:44 | 37.43409 | -122.13961 | 4852 ft | 261 kts | 347° |
| 2026-05-07 02:44 | 37.45130 | -122.14472 | 4598 ft | 245 kts | 347° |
| 2026-05-07 02:45 | 37.46744 | -122.14983 | 4168 ft | 234 kts | 345° |
| 2026-05-07 02:45 | 37.48275 | -122.15498 | 3719 ft | 230 kts | 345° |
| 2026-05-07 02:45 | 37.49829 | -122.16021 | 3420 ft | 230 kts | 345° |
| 2026-05-07 02:45 | 37.51347 | -122.16531 | 3319 ft | 221 kts | 344° |
| 2026-05-07 02:46 | 37.52727 | -122.17175 | 3241 ft | 203 kts | 332° |
| 2026-05-07 02:46 | 37.53791 | -122.18244 | 3038 ft | 190 kts | 313° |
| 2026-05-07 02:46 | 37.54541 | -122.19563 | 2906 ft | 184 kts | 300° |
| 2026-05-07 02:46 | 37.55152 | -122.20970 | 2665 ft | 182 kts | 298° |
| 2026-05-07 02:47 | 37.55753 | -122.22357 | 2414 ft | 178 kts | 297° |
| 2026-05-07 02:47 | 37.56323 | -122.23715 | 2157 ft | 169 kts | 297° |
| 2026-05-07 02:47 | 37.56843 | -122.24954 | 1962 ft | 150 kts | 297° |
| 2026-05-07 02:47 | 37.57308 | -122.26062 | 1748 ft | 136 kts | 297° |
| 2026-05-07 02:48 | 37.57733 | -122.27073 | 1576 ft | 126 kts | 296° |
| 2026-05-07 02:48 | 37.58141 | -122.28048 | 1420 ft | 127 kts | 296° |
| 2026-05-07 02:48 | 37.58553 | -122.29035 | 1239 ft | 127 kts | 296° |
| 2026-05-07 02:48 | 37.58967 | -122.30025 | 1067 ft | 128 kts | 296° |
| 2026-05-07 02:49 | 37.59381 | -122.31011 | 895 ft | 127 kts | 296° |
| 2026-05-07 02:49 | 37.59790 | -122.31988 | 725 ft | 125 kts | 296° |
| 2026-05-07 02:49 | 37.60191 | -122.32945 | 570 ft | 122 kts | 296° |
| 2026-05-07 02:49 | 37.60585 | -122.33885 | 399 ft | 120 kts | 296° |
| 2026-05-07 02:50 | 37.60972 | -122.34809 | 240 ft | 119 kts | 296° |
| 2026-05-07 02:50 | 37.61350 | -122.35711 | 85 ft | 115 kts | 295° |
| 2026-05-07 02:50 | 37.61689 | -122.36523 | 30 ft | 79 kts | 298° |
| 2026-05-07 02:50 | 37.61845 | -122.36893 | 28 ft | 37 kts | 297° |
| 2026-05-07 02:51 | 37.61963 | -122.37181 | 28 ft | 37 kts | 297° |
| 2026-05-07 02:51 | 37.62075 | -122.37453 | 30 ft | 33 kts | 298° |
| 2026-05-07 02:51 | 37.62179 | -122.37690 | 30 ft | 30 kts | 297° |
| 2026-05-07 02:51 | 37.62231 | -122.37948 | 28 ft | 30 kts | 271° |
| 2026-05-07 02:52 | 37.62233 | -122.38084 | 28 ft | 0 kts | 270° |
| 2026-05-07 02:53 | 37.62233 | -122.38087 | 28 ft | 2 kts | 270° |
| 2026-05-07 02:53 | 37.62233 | -122.38141 | 28 ft | 10 kts | 269° |
| 2026-05-07 02:53 | 37.62229 | -122.38259 | 28 ft | 17 kts | 267° |
| 2026-05-07 02:53 | 37.62220 | -122.38431 | 25 ft | 22 kts | 266° |
| 2026-05-07 02:54 | 37.62200 | -122.38606 | 26 ft | 18 kts | 246° |
| 2026-05-07 02:54 | 37.62186 | -122.38743 | 29 ft | 13 kts | 286° |
| 2026-05-07 02:54 | 37.62164 | -122.38806 | 29 ft | 7 kts | 210° |
| 2026-05-07 02:54 | 37.62120 | -122.38836 | 29 ft | 7 kts | 207° |
| 2026-05-07 02:55 | 37.62104 | -122.38846 | 28 ft | 0 kts | 207° |